Weather at Montreal / Pierre Elliott Trudeau International Airport

Public forecast

Using degrees Celsius for public forecast. Weather courtesy of forecast.io.

Current aviation weather report (METAR) for Montreal / Pierre Elliott Trudeau International Airport

Retrieved 2021/07/29 02:00 UTC (52 minutes ago):

CYUL 290200Z 22005KT 15SM SCT250 19/13 A2999 RMK CI4 SLP157 DENSITY ALT 600FT

Aviation forecast (TAF) for Montreal / Pierre Elliott Trudeau International Airport

Retrieved 2021-07-29 03:42 UTC (0 seconds ago):

TAF CYUL 290238Z 2903/2924 22005KT P6SM SCT250 FM291200 18005KT P6SM FEW060 BKN200 FM291500 20009KT P6SM BKN050 BKN140 FM291800 22012KT P6SM -SHRA BKN070 FM292300 19008KT 6SM -RA BR SCT010 OVC030 RMK NXT FCST BY 290600Z